createdAt,value
2023-04-03T00:02:11.778Z,1.40
2023-04-03T00:04:39.567Z,1.10
2023-04-03T00:07:07.322Z,1.20
2023-04-03T00:09:35.073Z,1.40
2023-04-03T00:12:02.795Z,0.95
2023-04-03T00:14:30.462Z,1.20
2023-04-03T00:16:58.178Z,1.30
2023-04-03T00:19:27.279Z,1.30
2023-04-03T00:21:55.454Z,1.10
2023-04-03T00:24:23.428Z,1.45
2023-04-03T00:26:51.179Z,1.25
2023-04-03T00:29:18.978Z,1.23
2023-04-03T00:31:46.763Z,1.40
2023-04-03T00:34:14.392Z,1.30
2023-04-03T00:36:43.772Z,1.30
2023-04-03T00:39:11.445Z,1.15
2023-04-03T00:41:39.105Z,1.30
2023-04-03T00:44:22.145Z,1.52
2023-04-03T00:46:49.823Z,1.20
2023-04-03T00:49:17.430Z,1.13
2023-04-03T00:51:46.536Z,1.10
2023-04-03T00:54:14.501Z,1.40
2023-04-03T00:56:48.766Z,1.37
2023-04-03T00:59:19.311Z,1.75
2023-04-03T01:01:47.120Z,1.40
2023-04-03T01:04:29.135Z,1.58
2023-04-03T01:07:00.604Z,1.38
2023-04-03T01:09:28.447Z,1.30
2023-04-03T01:11:56.117Z,1.50
2023-04-03T01:14:23.757Z,1.48
2023-04-03T01:16:55.238Z,1.55
2023-04-03T01:19:24.099Z,1.25
2023-04-03T01:22:15.968Z,1.48
2023-04-03T01:24:43.606Z,1.60
2023-04-03T01:27:13.117Z,1.33
2023-04-03T01:29:42.394Z,1.20
2023-04-03T01:32:11.507Z,1.25
2023-04-03T01:34:39.260Z,1.30
2023-04-03T01:37:07.053Z,1.42
2023-04-03T01:39:34.730Z,1.33
2023-04-03T01:42:02.349Z,1.67
2023-04-03T01:44:30.073Z,1.10
2023-04-03T01:46:57.767Z,1.80
2023-04-03T01:49:26.941Z,1.25
2023-04-03T01:51:54.591Z,1.50
2023-04-03T01:54:22.279Z,1.30
2023-04-03T01:56:49.936Z,1.48
2023-04-03T01:59:19.094Z,1.15
2023-04-03T02:01:47.014Z,1.60
2023-04-03T02:04:15.259Z,1.73
2023-04-03T02:06:44.368Z,1.40
2023-04-03T02:09:12.104Z,1.50
2023-04-03T02:11:39.732Z,1.70
2023-04-03T02:14:07.729Z,1.40
2023-04-03T02:16:35.423Z,1.55
2023-04-03T02:19:03.138Z,1.53
2023-04-03T02:21:30.920Z,1.40
2023-04-03T02:24:00.073Z,1.30
2023-04-03T02:26:27.844Z,1.10
2023-04-03T02:28:55.533Z,1.48
2023-04-03T02:31:23.281Z,1.52
2023-04-03T02:33:51.121Z,1.45
2023-04-03T02:36:19.114Z,1.55
2023-04-03T02:38:47.327Z,1.60
2023-04-03T02:41:16.374Z,1.42
2023-04-03T02:43:43.990Z,1.20
2023-04-03T02:46:11.812Z,1.27
2023-04-03T02:48:39.606Z,1.40
2023-04-03T02:51:07.497Z,1.50
2023-04-03T02:53:35.130Z,1.50
2023-04-03T02:56:02.759Z,2.00
2023-04-03T02:58:31.779Z,1.70
2023-04-03T03:00:59.474Z,1.30
2023-04-03T03:03:27.242Z,1.53
2023-04-03T03:06:03.516Z,1.40
2023-04-03T03:08:31.554Z,1.70
2023-04-03T03:10:59.220Z,1.58
2023-04-03T03:13:27.192Z,1.30
2023-04-03T03:15:56.387Z,1.83
2023-04-03T03:18:24.104Z,1.70
2023-04-03T03:20:53.610Z,1.50
2023-04-03T03:23:21.828Z,1.80
2023-04-03T03:25:49.529Z,1.35
2023-04-03T03:28:17.226Z,1.50
2023-04-03T03:30:44.854Z,1.80
2023-04-03T03:33:13.908Z,1.73
2023-04-03T03:35:41.970Z,1.90
2023-04-03T03:38:09.651Z,1.63
2023-04-03T03:40:37.294Z,1.63
2023-04-03T03:43:05.301Z,1.60
2023-04-03T03:45:33.269Z,1.70
2023-04-03T03:48:01.265Z,1.73
2023-04-03T03:50:30.405Z,1.85
2023-04-03T03:52:58.248Z,1.55
2023-04-03T03:55:26.134Z,1.85
2023-04-03T03:57:53.862Z,1.77
2023-04-03T04:00:21.734Z,1.23
2023-04-03T04:02:49.564Z,1.70
2023-04-03T04:05:17.411Z,2.05
2023-04-03T04:07:46.423Z,1.75
2023-04-03T04:10:14.803Z,1.50
2023-04-03T04:12:42.549Z,1.60
2023-04-03T04:15:11.566Z,1.60
2023-04-03T04:17:39.208Z,1.45
2023-04-03T04:20:07.684Z,1.60
2023-04-03T04:22:35.312Z,1.77
2023-04-03T04:25:04.990Z,1.67
2023-04-03T04:27:32.636Z,1.58
2023-04-03T04:30:00.352Z,1.75
2023-04-03T04:32:28.020Z,1.60
2023-04-03T04:34:55.879Z,1.63
2023-04-03T04:37:23.658Z,1.77
2023-04-03T04:39:51.333Z,1.67
2023-04-03T04:42:20.365Z,1.90
2023-04-03T04:44:47.997Z,2.05
2023-04-03T04:47:15.802Z,1.57
2023-04-03T04:49:59.178Z,1.90
2023-04-03T04:52:26.794Z,1.73
2023-04-03T04:55:17.548Z,1.85
2023-04-03T04:57:46.587Z,1.55
2023-04-03T05:00:15.901Z,1.60
2023-04-03T05:02:43.574Z,2.00
2023-04-03T05:05:11.458Z,1.63
2023-04-03T05:07:39.232Z,1.80
2023-04-03T05:10:08.312Z,1.52
2023-04-03T05:12:36.374Z,1.65
2023-04-03T05:15:06.335Z,1.52
2023-04-03T05:17:34.031Z,1.73
2023-04-03T05:20:01.780Z,1.65
2023-04-03T05:22:29.400Z,1.58
2023-04-03T05:24:57.014Z,1.63
2023-04-03T05:27:25.573Z,2.00
2023-04-03T05:29:54.886Z,2.00
2023-04-03T05:32:24.400Z,1.60
2023-04-03T05:34:52.726Z,1.60
2023-04-03T05:37:20.566Z,1.60
2023-04-03T05:39:48.644Z,1.42
2023-04-03T05:42:16.905Z,1.50
2023-04-03T05:44:45.225Z,1.48
2023-04-03T05:47:13.317Z,1.77
2023-04-03T05:49:42.653Z,1.65
2023-04-03T05:52:15.940Z,1.70
2023-04-03T05:54:44.068Z,1.70
2023-04-03T05:57:12.989Z,1.80
2023-04-03T05:59:40.677Z,1.65
2023-04-03T06:02:08.547Z,1.60
2023-04-03T06:04:36.334Z,1.33
2023-04-03T06:07:05.544Z,1.83
2023-04-03T06:09:33.266Z,1.92
2023-04-03T06:12:16.137Z,1.73
2023-04-03T06:14:43.788Z,2.22
2023-04-03T06:17:13.520Z,1.75
2023-04-03T06:19:45.450Z,1.80
2023-04-03T06:22:15.057Z,1.90
2023-04-03T06:24:42.834Z,1.75
2023-04-03T06:27:11.904Z,1.73
2023-04-03T06:33:16.055Z,1.48
2023-04-03T06:35:43.743Z,1.48
2023-04-03T06:38:13.242Z,1.60
2023-04-03T06:40:41.257Z,1.58
2023-04-03T06:43:09.463Z,2.20
2023-04-03T06:45:37.818Z,1.27
2023-04-03T06:51:20.951Z,1.40
2023-04-03T06:53:50.932Z,1.40
2023-04-03T06:56:35.253Z,1.55
2023-04-03T06:59:03.232Z,1.48
2023-04-03T07:01:32.034Z,1.52
2023-04-03T07:03:59.833Z,1.10
2023-04-03T07:06:28.610Z,1.30
2023-04-03T07:08:58.106Z,1.92
2023-04-03T07:11:25.941Z,1.15
2023-04-03T07:13:53.803Z,1.25
2023-04-03T07:18:59.071Z,1.50
2023-04-03T07:21:27.024Z,1.73
2023-04-03T07:23:55.346Z,1.35
2023-04-03T07:26:24.685Z,0.82
2023-04-03T07:28:52.549Z,1.10
2023-04-03T07:31:20.884Z,1.30
2023-04-03T07:33:51.040Z,1.60
2023-04-03T07:36:21.566Z,1.45
2023-04-03T07:38:50.332Z,1.23
2023-04-03T07:41:21.369Z,1.30
2023-04-03T07:43:51.812Z,1.08
2023-04-03T07:46:21.708Z,1.57
2023-04-03T07:48:49.818Z,1.48
2023-04-03T07:51:17.614Z,1.20
2023-04-03T07:53:45.341Z,1.27
2023-04-03T07:56:13.003Z,1.10
2023-04-03T07:58:47.753Z,1.02
2023-04-03T08:01:19.232Z,1.20
2023-04-03T08:03:47.049Z,1.27
2023-04-03T08:06:21.666Z,1.02
2023-04-03T08:08:54.520Z,1.08
2023-04-03T08:11:22.396Z,1.40
2023-04-03T08:13:51.405Z,1.07
2023-04-03T08:16:24.686Z,0.82
2023-04-03T08:18:53.389Z,0.83
2023-04-03T08:21:21.406Z,0.98
2023-04-03T08:23:55.145Z,0.90
2023-04-03T08:26:23.672Z,1.10
2023-04-03T08:28:51.596Z,0.80
2023-04-03T08:31:21.732Z,0.80
2023-04-03T08:33:50.278Z,0.85
2023-04-03T08:36:21.277Z,0.80
2023-04-03T08:38:49.673Z,0.90
2023-04-03T08:41:25.396Z,1.10
2023-04-03T08:44:00.062Z,0.70
2023-04-03T08:46:38.338Z,0.68
2023-04-03T08:49:07.112Z,1.00
2023-04-03T08:51:35.145Z,0.80
2023-04-03T08:54:05.553Z,0.90
2023-04-03T08:56:34.080Z,0.57
2023-04-03T08:59:06.418Z,0.80
2023-04-03T09:01:38.616Z,0.90
2023-04-03T09:04:12.882Z,0.73
2023-04-03T09:06:45.549Z,0.85
2023-04-03T09:09:16.746Z,0.70
2023-04-03T09:11:53.064Z,0.70
2023-04-03T09:14:26.113Z,0.70
2023-04-03T09:16:58.325Z,0.77
2023-04-03T09:19:45.676Z,0.80
2023-04-03T09:22:19.346Z,1.05
2023-04-03T09:24:47.924Z,0.70
2023-04-03T09:27:27.783Z,0.80
2023-04-03T09:29:56.576Z,0.60
2023-04-03T09:32:29.946Z,1.17
2023-04-03T09:35:03.803Z,0.90
2023-04-03T09:37:41.533Z,0.80
2023-04-03T09:40:39.638Z,1.10
2023-04-03T09:43:24.138Z,0.70
2023-04-03T09:45:53.055Z,0.50
2023-04-03T09:48:24.399Z,0.88
2023-04-03T09:50:59.902Z,0.65
2023-04-03T09:53:31.433Z,0.80
2023-04-03T09:55:59.997Z,0.97
2023-04-03T09:58:42.848Z,0.70
2023-04-03T10:01:26.059Z,0.90
2023-04-03T10:04:11.812Z,0.60
2023-04-03T10:06:47.735Z,0.60
2023-04-03T10:09:21.486Z,0.50
2023-04-03T10:12:05.726Z,0.80
2023-04-03T10:14:34.600Z,0.60
2023-04-03T10:17:13.307Z,0.50
2023-04-03T10:19:44.666Z,0.80
2023-04-03T10:22:21.278Z,0.65
2023-04-03T10:24:56.486Z,1.00
2023-04-03T10:27:32.204Z,0.77
2023-04-03T10:30:04.708Z,0.87
2023-04-03T10:32:45.295Z,0.90
2023-04-03T10:35:28.235Z,0.80
2023-04-03T10:38:03.960Z,0.90
2023-04-03T10:44:46.151Z,0.95
2023-04-03T10:47:18.711Z,0.75
2023-04-03T10:49:59.289Z,0.80
2023-04-03T10:52:35.460Z,0.90
2023-04-03T10:55:11.658Z,0.90
2023-04-03T10:57:40.029Z,1.00
2023-04-03T11:00:10.504Z,0.93
2023-04-03T11:02:40.926Z,1.00
2023-04-03T11:05:17.910Z,0.87
2023-04-03T11:07:50.276Z,0.70
2023-04-03T11:10:27.972Z,0.63
2023-04-03T11:15:40.985Z,1.08
2023-04-03T11:18:11.830Z,1.03
2023-04-03T11:20:41.030Z,0.90
2023-04-03T11:23:16.272Z,0.90
2023-04-03T11:25:45.912Z,0.70
2023-04-03T11:28:14.695Z,0.60
2023-04-03T11:30:47.652Z,0.60
2023-04-03T11:33:25.911Z,1.15
2023-04-03T11:35:55.183Z,0.80
2023-04-03T11:38:27.544Z,0.70
2023-04-03T11:40:56.597Z,1.20
2023-04-03T11:43:27.778Z,0.90
2023-04-03T11:45:59.695Z,0.77
2023-04-03T11:48:51.059Z,0.80
2023-04-03T11:51:42.661Z,1.10
2023-04-03T11:54:45.452Z,1.00
2023-04-03T11:57:48.033Z,0.90
2023-04-03T12:00:51.691Z,0.80
2023-04-03T12:03:51.981Z,1.00
2023-04-03T12:06:45.547Z,0.93
2023-04-03T12:09:25.766Z,0.82
2023-04-03T12:11:55.092Z,0.82
2023-04-03T12:14:25.287Z,0.70
2023-04-03T12:16:54.848Z,0.90
2023-04-03T12:19:42.506Z,0.90
2023-04-03T12:22:16.885Z,0.98
2023-04-03T12:24:46.310Z,0.80
2023-04-03T12:27:31.352Z,0.88
2023-04-03T12:30:04.547Z,0.80
2023-04-03T12:32:45.797Z,0.75
2023-04-03T12:35:21.691Z,1.30
2023-04-03T12:38:06.111Z,0.88
2023-04-03T12:40:38.098Z,0.70
2023-04-03T12:43:22.863Z,0.75
2023-04-03T12:45:56.000Z,0.90
2023-04-03T12:48:27.370Z,1.10
2023-04-03T12:50:57.000Z,0.80
2023-04-03T12:53:27.153Z,0.82
2023-04-03T12:55:56.413Z,0.90
2023-04-03T12:58:27.298Z,1.38
2023-04-03T13:01:03.541Z,1.80
2023-04-03T13:03:32.215Z,0.80
2023-04-03T13:06:02.871Z,1.00
2023-04-03T13:08:31.507Z,1.00
2023-04-03T13:11:02.620Z,0.93
2023-04-03T13:13:31.989Z,1.35
2023-04-03T13:16:00.754Z,0.80
2023-04-03T13:18:32.231Z,0.77
2023-04-03T13:21:04.724Z,0.75
2023-04-03T13:23:33.397Z,1.00
2023-04-03T13:26:04.546Z,1.02
2023-04-03T13:28:34.629Z,0.73
2023-04-03T13:31:06.561Z,0.88
2023-04-03T13:33:59.323Z,0.80
2023-04-03T13:36:30.555Z,1.00
2023-04-03T13:39:03.518Z,0.88
2023-04-03T13:41:32.926Z,0.93
2023-04-03T13:44:26.746Z,0.90
2023-04-03T13:46:56.225Z,1.00
2023-04-03T13:49:29.798Z,0.90
2023-04-03T13:52:07.411Z,0.88
2023-04-03T13:54:38.328Z,1.00
2023-04-03T13:57:14.344Z,1.00
2023-04-03T13:59:44.195Z,1.00
2023-04-03T14:02:19.680Z,0.93
2023-04-03T14:04:51.706Z,1.08
2023-04-03T14:07:21.143Z,1.00
2023-04-03T14:09:49.090Z,0.88
2023-04-03T14:12:30.036Z,0.73
2023-04-03T14:15:00.769Z,0.80
2023-04-03T14:17:29.482Z,0.80
2023-04-03T14:19:58.011Z,0.88
2023-04-03T14:22:27.789Z,0.93
2023-04-03T14:24:56.166Z,0.80
2023-04-03T14:27:25.478Z,1.08
2023-04-03T14:29:54.415Z,1.00
2023-04-03T14:32:25.496Z,0.80
2023-04-03T14:34:54.085Z,1.10
2023-04-03T14:37:24.643Z,1.10
2023-04-03T14:39:54.382Z,1.00
2023-04-03T14:42:24.593Z,1.20
2023-04-03T14:44:52.899Z,1.20
2023-04-03T14:47:31.341Z,0.88
2023-04-03T14:50:00.431Z,1.00
2023-04-03T14:52:30.113Z,0.90
2023-04-03T14:54:58.087Z,0.98
2023-04-03T14:57:27.167Z,0.90
2023-04-03T14:59:54.943Z,1.13
2023-04-03T15:02:29.424Z,0.80
2023-04-03T15:04:58.156Z,1.00
2023-04-03T15:07:26.728Z,0.90
2023-04-03T15:09:57.130Z,0.90
2023-04-03T15:12:25.065Z,1.00
2023-04-03T15:15:00.263Z,1.08
2023-04-03T15:17:31.167Z,0.93
2023-04-03T15:19:58.976Z,1.23
2023-04-03T15:22:26.662Z,0.95
2023-04-03T15:24:54.438Z,0.93
2023-04-03T15:27:22.150Z,1.13
2023-04-03T15:30:00.172Z,0.68
2023-04-03T15:32:30.434Z,1.00
2023-04-03T15:35:00.677Z,0.80
2023-04-03T15:37:28.346Z,0.93
2023-04-03T15:39:56.306Z,0.90
2023-04-03T15:42:23.968Z,0.80
2023-04-03T15:44:51.697Z,1.20
2023-04-03T15:47:19.491Z,1.17
2023-04-03T15:49:47.160Z,0.73
2023-04-03T15:52:16.307Z,1.00
2023-04-03T15:54:44.068Z,1.00
2023-04-03T15:57:11.939Z,0.80
2023-04-03T15:59:39.689Z,1.00
2023-04-03T16:02:08.625Z,0.88
2023-04-03T16:04:36.437Z,1.00
2023-04-03T16:07:04.444Z,1.00
2023-04-03T16:09:35.012Z,0.70
2023-04-03T16:12:03.051Z,1.00
2023-04-03T16:14:31.415Z,0.80
2023-04-03T16:17:00.125Z,1.23
2023-04-03T16:19:27.980Z,1.30
2023-04-03T16:21:56.001Z,0.95
2023-04-03T16:24:23.693Z,0.90
2023-04-03T16:26:54.330Z,1.27
2023-04-03T16:29:37.284Z,0.73
2023-04-03T16:32:05.437Z,0.90
2023-04-03T16:34:33.788Z,0.82
2023-04-03T16:37:01.700Z,0.82
2023-04-03T16:39:29.536Z,0.90
2023-04-03T16:41:59.144Z,1.20
2023-04-03T16:44:27.142Z,0.85
2023-04-03T16:46:54.990Z,0.80
2023-04-03T16:49:22.939Z,1.00
2023-04-03T16:51:51.384Z,0.88
2023-04-03T16:54:19.137Z,0.65
2023-04-03T16:56:47.462Z,1.00
2023-04-03T16:59:16.565Z,1.10
2023-04-03T17:01:44.404Z,0.90
2023-04-03T17:04:12.228Z,1.40
2023-04-03T17:06:40.359Z,0.95
2023-04-03T17:09:08.246Z,0.80
2023-04-03T17:14:04.160Z,1.03
2023-04-03T17:16:35.164Z,0.83
2023-04-03T17:19:03.111Z,0.88
2023-04-03T17:21:30.963Z,0.90
2023-04-03T17:24:02.366Z,0.90
2023-04-03T17:26:30.863Z,0.60
2023-04-03T17:28:58.523Z,0.70
2023-04-03T17:31:26.288Z,0.90
2023-04-03T17:33:55.471Z,0.98
2023-04-03T17:36:23.437Z,0.80
2023-04-03T17:38:52.240Z,0.80
2023-04-03T17:41:19.912Z,1.00
2023-04-03T17:43:47.960Z,1.20
2023-04-03T17:46:16.813Z,1.00
2023-04-03T17:48:45.497Z,1.17
2023-04-03T17:51:17.152Z,0.85
2023-04-03T17:53:45.511Z,1.15
2023-04-03T17:56:15.222Z,0.95
2023-04-03T18:01:28.353Z,1.00
2023-04-03T18:03:58.007Z,1.48
2023-04-03T18:06:28.975Z,1.90
2023-04-03T18:08:59.560Z,1.50
2023-04-03T18:11:28.754Z,1.80
2023-04-03T18:14:00.274Z,0.88
2023-04-03T18:16:29.761Z,1.20
2023-04-03T18:19:17.658Z,1.08
2023-04-03T18:21:50.437Z,0.98
2023-04-03T18:24:20.152Z,1.60
2023-04-03T18:26:51.311Z,1.17
2023-04-03T18:29:19.185Z,1.45
2023-04-03T18:31:50.375Z,1.35
2023-04-03T18:34:18.068Z,1.35
2023-04-03T18:36:46.139Z,1.52
2023-04-03T18:39:15.761Z,1.33
2023-04-03T18:41:43.651Z,1.70
2023-04-03T18:44:14.616Z,1.00
2023-04-03T18:46:42.420Z,1.45
2023-04-03T18:49:10.802Z,1.23
2023-04-03T18:51:39.920Z,1.20
2023-04-03T18:54:09.747Z,1.33
2023-04-03T18:56:39.356Z,1.73
2023-04-03T18:59:07.145Z,1.30
2023-04-03T19:01:35.012Z,1.40
2023-04-03T19:04:02.842Z,1.27
2023-04-03T19:06:30.802Z,1.30
2023-04-03T19:08:59.700Z,1.67
2023-04-03T19:11:30.064Z,1.30
2023-04-03T19:14:14.300Z,1.13
2023-04-03T19:16:43.404Z,1.25
2023-04-03T19:19:11.166Z,1.50
2023-04-03T19:21:41.720Z,1.20
2023-04-03T19:24:09.948Z,1.25
2023-04-03T19:26:37.721Z,1.40
2023-04-03T19:29:06.854Z,1.27
2023-04-03T19:31:36.804Z,1.20
2023-04-03T19:34:04.989Z,1.50
2023-04-03T19:36:33.662Z,1.50
2023-04-03T19:39:01.689Z,1.48
2023-04-03T19:41:32.211Z,1.20
2023-04-03T19:43:59.936Z,1.80
2023-04-03T19:46:30.155Z,1.60
2023-04-03T19:48:58.699Z,1.60
2023-04-03T19:51:26.495Z,1.50
2023-04-03T19:53:54.639Z,1.60
2023-04-03T19:56:23.529Z,1.67
2023-04-03T19:58:54.183Z,1.63
2023-04-03T20:01:22.631Z,1.40
2023-04-03T20:03:52.216Z,1.43
2023-04-03T20:06:20.118Z,1.52
2023-04-03T20:08:47.849Z,1.85
2023-04-03T20:11:15.554Z,1.35
2023-04-03T20:13:43.273Z,1.73
2023-04-03T20:16:11.064Z,1.63
2023-04-03T20:18:39.570Z,1.90
2023-04-03T20:21:08.940Z,1.43
2023-04-03T20:26:24.619Z,1.67
2023-04-03T20:28:52.405Z,1.60
2023-04-03T20:31:20.157Z,1.83
2023-04-03T20:33:48.603Z,2.13
2023-04-03T20:36:18.237Z,1.60
2023-04-03T20:38:46.181Z,1.63
2023-04-03T20:41:13.920Z,1.80
2023-04-03T20:43:42.862Z,1.77
2023-04-03T20:46:10.846Z,1.70
2023-04-03T20:51:25.460Z,1.40
2023-04-03T20:53:53.155Z,1.80
2023-04-03T20:56:20.831Z,1.83
2023-04-03T20:58:49.588Z,2.08
2023-04-03T21:01:19.259Z,2.00
2023-04-03T21:03:48.119Z,1.80
2023-04-03T21:06:53.086Z,1.95
2023-04-03T21:09:58.530Z,1.70
2023-04-03T21:13:03.608Z,1.45
2023-04-03T21:15:51.974Z,2.08
2023-04-03T21:18:34.293Z,1.55
2023-04-03T21:21:03.103Z,2.07
2023-04-03T21:23:31.249Z,1.52
2023-04-03T21:25:59.023Z,1.67
2023-04-03T21:28:27.424Z,1.50
2023-04-03T21:30:55.390Z,2.05
2023-04-03T21:33:24.912Z,1.58
2023-04-03T21:35:57.779Z,1.80
2023-04-03T21:38:27.386Z,1.73
2023-04-03T21:40:57.761Z,1.67
2023-04-03T21:43:25.591Z,1.77
2023-04-03T21:45:54.387Z,1.98
2023-04-03T21:48:22.335Z,1.65
2023-04-03T21:50:52.526Z,1.63
2023-04-03T21:53:20.904Z,1.60
2023-04-03T21:55:55.381Z,1.52
2023-04-03T21:58:23.151Z,1.75
2023-04-03T22:00:51.100Z,1.60
2023-04-03T22:03:22.306Z,1.70
2023-04-03T22:05:51.434Z,2.20
2023-04-03T22:08:19.465Z,1.95
2023-04-03T22:10:47.529Z,2.15
2023-04-03T22:13:15.380Z,2.00
2023-04-03T22:15:44.111Z,2.00
2023-04-03T22:18:12.360Z,1.90
2023-04-03T22:20:40.184Z,1.52
2023-04-03T22:23:09.330Z,2.00
2023-04-03T22:25:37.017Z,1.88
2023-04-03T22:28:04.842Z,1.97
2023-04-03T22:30:32.549Z,2.22
2023-04-03T22:33:00.310Z,1.90
2023-04-03T22:35:27.988Z,2.30
2023-04-03T22:37:56.361Z,1.70
2023-04-03T22:40:25.596Z,2.00
2023-04-03T22:42:54.069Z,2.10
2023-04-03T22:45:21.726Z,2.42
2023-04-03T22:48:01.635Z,2.22
2023-04-03T22:50:29.688Z,2.22
2023-04-03T22:52:57.377Z,2.20
2023-04-03T22:55:26.668Z,2.25
2023-04-03T22:57:54.382Z,2.22
2023-04-03T23:00:22.181Z,2.10
2023-04-03T23:02:49.863Z,2.13
2023-04-03T23:05:17.882Z,2.13
2023-04-03T23:07:45.594Z,2.40
2023-04-03T23:10:13.381Z,2.15
2023-04-03T23:12:51.742Z,2.17
2023-04-03T23:15:19.687Z,2.35
2023-04-03T23:17:49.720Z,2.58
2023-04-03T23:20:17.655Z,2.92
2023-04-03T23:22:45.670Z,2.90
2023-04-03T23:25:13.425Z,2.55
2023-04-03T23:27:41.346Z,3.10
2023-04-03T23:30:11.589Z,2.55
2023-04-03T23:32:39.276Z,2.67
2023-04-03T23:35:07.748Z,2.42
2023-04-03T23:37:35.975Z,2.20
2023-04-03T23:40:03.724Z,2.13
2023-04-03T23:42:31.461Z,2.67
2023-04-03T23:44:59.121Z,1.92
2023-04-03T23:47:28.554Z,2.17
2023-04-03T23:49:56.293Z,2.20
2023-04-03T23:52:24.008Z,2.40
2023-04-03T23:54:51.717Z,2.15
2023-04-03T23:57:19.489Z,2.13
2023-04-03T23:59:47.183Z,2.55
